sensor_id;sensor_type;location;lat;lon;timestamp;P1;durP1;ratioP1;P2;durP2;ratioP2
75649;SDS011;64245;51.282;22.494;2023-02-01T00:01:22;17.60;;;8.15;;
75649;SDS011;64245;51.282;22.494;2023-02-01T00:03:48;19.58;;;9.18;;
75649;SDS011;64245;51.282;22.494;2023-02-01T00:06:13;15.45;;;6.57;;
75649;SDS011;64245;51.282;22.494;2023-02-01T00:08:39;18.70;;;9.95;;
75649;SDS011;64245;51.282;22.494;2023-02-01T00:11:06;21.35;;;10.85;;
75649;SDS011;64245;51.282;22.494;2023-02-01T00:13:33;23.15;;;12.20;;
75649;SDS011;64245;51.282;22.494;2023-02-01T00:16:08;16.13;;;9.18;;
75649;SDS011;64245;51.282;22.494;2023-02-01T00:18:38;16.17;;;10.35;;
75649;SDS011;64245;51.282;22.494;2023-02-01T00:21:04;13.73;;;6.88;;
75649;SDS011;64245;51.282;22.494;2023-02-01T00:23:33;13.65;;;9.05;;
75649;SDS011;64245;51.282;22.494;2023-02-01T00:26:03;16.95;;;8.52;;
75649;SDS011;64245;51.282;22.494;2023-02-01T00:28:31;13.60;;;6.88;;
75649;SDS011;64245;51.282;22.494;2023-02-01T00:30:57;15.95;;;8.38;;
75649;SDS011;64245;51.282;22.494;2023-02-01T00:33:28;12.70;;;6.10;;
75649;SDS011;64245;51.282;22.494;2023-02-01T00:35:57;10.88;;;5.40;;
75649;SDS011;64245;51.282;22.494;2023-02-01T00:38:24;12.68;;;6.30;;
75649;SDS011;64245;51.282;22.494;2023-02-01T00:40:50;17.65;;;6.90;;
75649;SDS011;64245;51.282;22.494;2023-02-01T00:43:16;8.75;;;5.55;;
75649;SDS011;64245;51.282;22.494;2023-02-01T00:45:41;14.88;;;7.95;;
75649;SDS011;64245;51.282;22.494;2023-02-01T00:48:07;14.35;;;7.45;;
75649;SDS011;64245;51.282;22.494;2023-02-01T00:50:33;13.85;;;7.53;;
75649;SDS011;64245;51.282;22.494;2023-02-01T00:52:58;16.33;;;9.32;;
75649;SDS011;64245;51.282;22.494;2023-02-01T00:55:24;15.95;;;7.47;;
75649;SDS011;64245;51.282;22.494;2023-02-01T00:57:51;11.35;;;6.13;;
75649;SDS011;64245;51.282;22.494;2023-02-01T01:00:16;7.03;;;3.60;;
75649;SDS011;64245;51.282;22.494;2023-02-01T01:02:42;10.82;;;5.43;;
75649;SDS011;64245;51.282;22.494;2023-02-01T01:05:08;10.82;;;5.88;;
75649;SDS011;64245;51.282;22.494;2023-02-01T01:07:33;11.85;;;6.03;;
75649;SDS011;64245;51.282;22.494;2023-02-01T01:09:59;10.65;;;6.00;;
75649;SDS011;64245;51.282;22.494;2023-02-01T01:12:25;10.63;;;5.32;;
75649;SDS011;64245;51.282;22.494;2023-02-01T01:14:51;8.57;;;5.10;;
75649;SDS011;64245;51.282;22.494;2023-02-01T01:17:17;12.55;;;6.32;;
75649;SDS011;64245;51.282;22.494;2023-02-01T01:19:42;13.10;;;7.30;;
75649;SDS011;64245;51.282;22.494;2023-02-01T01:22:08;8.23;;;4.63;;
75649;SDS011;64245;51.282;22.494;2023-02-01T01:24:34;5.28;;;2.97;;
75649;SDS011;64245;51.282;22.494;2023-02-01T01:26:59;13.63;;;5.90;;
75649;SDS011;64245;51.282;22.494;2023-02-01T01:29:25;3.90;;;2.08;;
75649;SDS011;64245;51.282;22.494;2023-02-01T01:31:51;15.98;;;7.85;;
75649;SDS011;64245;51.282;22.494;2023-02-01T01:34:16;10.82;;;5.20;;
75649;SDS011;64245;51.282;22.494;2023-02-01T01:36:42;11.57;;;5.20;;
75649;SDS011;64245;51.282;22.494;2023-02-01T01:39:07;14.38;;;6.38;;
75649;SDS011;64245;51.282;22.494;2023-02-01T01:41:33;12.15;;;5.13;;
75649;SDS011;64245;51.282;22.494;2023-02-01T01:44:00;12.40;;;6.40;;
75649;SDS011;64245;51.282;22.494;2023-02-01T01:46:34;10.63;;;6.10;;
75649;SDS011;64245;51.282;22.494;2023-02-01T01:49:09;10.63;;;4.40;;
75649;SDS011;64245;51.282;22.494;2023-02-01T01:51:46;9.38;;;4.35;;
75649;SDS011;64245;51.282;22.494;2023-02-01T01:56:44;8.45;;;4.50;;
75649;SDS011;64245;51.282;22.494;2023-02-01T01:59:14;8.38;;;4.03;;
75649;SDS011;64245;51.282;22.494;2023-02-01T02:01:40;8.80;;;4.85;;
75649;SDS011;64245;51.282;22.494;2023-02-01T02:04:05;8.68;;;5.10;;
75649;SDS011;64245;51.282;22.494;2023-02-01T02:06:35;8.68;;;6.55;;
75649;SDS011;64245;51.282;22.494;2023-02-01T02:09:05;8.85;;;4.35;;
75649;SDS011;64245;51.282;22.494;2023-02-01T02:11:31;13.63;;;5.60;;
75649;SDS011;64245;51.282;22.494;2023-02-01T02:13:56;10.13;;;4.75;;
75649;SDS011;64245;51.282;22.494;2023-02-01T02:19:22;5.45;;;3.88;;
75649;SDS011;64245;51.282;22.494;2023-02-01T02:31:19;9.52;;;4.85;;
75649;SDS011;64245;51.282;22.494;2023-02-01T02:34:10;8.43;;;4.60;;
75649;SDS011;64245;51.282;22.494;2023-02-01T02:37:03;3.95;;;2.70;;
75649;SDS011;64245;51.282;22.494;2023-02-01T02:39:48;6.65;;;3.40;;
75649;SDS011;64245;51.282;22.494;2023-02-01T02:54:02;4.55;;;1.90;;
75649;SDS011;64245;51.282;22.494;2023-02-01T02:56:51;1.95;;;1.40;;
75649;SDS011;64245;51.282;22.494;2023-02-01T02:59:39;3.58;;;2.40;;
75649;SDS011;64245;51.282;22.494;2023-02-01T03:02:25;6.28;;;3.10;;
75649;SDS011;64245;51.282;22.494;2023-02-01T03:05:12;6.43;;;3.40;;
75649;SDS011;64245;51.282;22.494;2023-02-01T03:10:33;4.22;;;1.73;;
75649;SDS011;64245;51.282;22.494;2023-02-01T03:12:59;3.65;;;2.03;;
75649;SDS011;64245;51.282;22.494;2023-02-01T03:16:11;5.68;;;2.13;;
75649;SDS011;64245;51.282;22.494;2023-02-01T03:18:34;7.35;;;2.90;;
75649;SDS011;64245;51.282;22.494;2023-02-01T03:21:04;5.28;;;2.90;;
75649;SDS011;64245;51.282;22.494;2023-02-01T03:23:36;2.25;;;1.77;;
75649;SDS011;64245;51.282;22.494;2023-02-01T03:26:03;3.85;;;2.00;;
75649;SDS011;64245;51.282;22.494;2023-02-01T03:28:33;3.90;;;1.42;;
75649;SDS011;64245;51.282;22.494;2023-02-01T03:31:01;1.83;;;1.00;;
75649;SDS011;64245;51.282;22.494;2023-02-01T03:33:28;3.33;;;2.20;;
75649;SDS011;64245;51.282;22.494;2023-02-01T03:35:57;4.00;;;1.83;;
75649;SDS011;64245;51.282;22.494;2023-02-01T03:38:40;3.25;;;1.98;;
75649;SDS011;64245;51.282;22.494;2023-02-01T03:41:27;6.30;;;3.22;;
75649;SDS011;64245;51.282;22.494;2023-02-01T03:44:01;4.45;;;2.08;;
75649;SDS011;64245;51.282;22.494;2023-02-01T03:46:35;2.85;;;1.45;;
75649;SDS011;64245;51.282;22.494;2023-02-01T03:49:06;7.05;;;2.58;;
75649;SDS011;64245;51.282;22.494;2023-02-01T03:51:36;5.63;;;2.47;;
75649;SDS011;64245;51.282;22.494;2023-02-01T03:54:05;8.15;;;2.22;;
75649;SDS011;64245;51.282;22.494;2023-02-01T03:56:34;3.63;;;2.33;;
75649;SDS011;64245;51.282;22.494;2023-02-01T03:59:03;2.42;;;1.63;;
75649;SDS011;64245;51.282;22.494;2023-02-01T04:01:29;6.28;;;2.20;;
75649;SDS011;64245;51.282;22.494;2023-02-01T04:03:56;2.45;;;1.75;;
75649;SDS011;64245;51.282;22.494;2023-02-01T04:06:23;8.98;;;2.60;;
75649;SDS011;64245;51.282;22.494;2023-02-01T04:08:50;3.40;;;1.80;;
75649;SDS011;64245;51.282;22.494;2023-02-01T04:11:15;7.75;;;2.65;;
75649;SDS011;64245;51.282;22.494;2023-02-01T04:13:41;5.53;;;1.70;;
75649;SDS011;64245;51.282;22.494;2023-02-01T04:16:07;2.75;;;2.03;;
75649;SDS011;64245;51.282;22.494;2023-02-01T04:18:33;5.40;;;2.00;;
75649;SDS011;64245;51.282;22.494;2023-02-01T04:20:58;3.67;;;1.83;;
75649;SDS011;64245;51.282;22.494;2023-02-01T04:23:24;3.70;;;1.95;;
75649;SDS011;64245;51.282;22.494;2023-02-01T04:25:49;3.78;;;2.08;;
75649;SDS011;64245;51.282;22.494;2023-02-01T04:28:15;1.75;;;0.95;;
75649;SDS011;64245;51.282;22.494;2023-02-01T04:30:41;6.88;;;1.48;;
75649;SDS011;64245;51.282;22.494;2023-02-01T04:33:07;2.75;;;0.70;;
75649;SDS011;64245;51.282;22.494;2023-02-01T04:35:32;3.03;;;1.00;;
75649;SDS011;64245;51.282;22.494;2023-02-01T04:37:58;3.77;;;1.20;;
75649;SDS011;64245;51.282;22.494;2023-02-01T04:40:24;1.75;;;0.85;;
75649;SDS011;64245;51.282;22.494;2023-02-01T04:42:50;2.20;;;0.95;;
75649;SDS011;64245;51.282;22.494;2023-02-01T04:45:15;4.40;;;1.27;;
75649;SDS011;64245;51.282;22.494;2023-02-01T04:47:41;2.30;;;1.20;;
75649;SDS011;64245;51.282;22.494;2023-02-01T04:50:07;2.25;;;1.25;;
75649;SDS011;64245;51.282;22.494;2023-02-01T04:52:36;5.68;;;1.65;;
75649;SDS011;64245;51.282;22.494;2023-02-01T04:55:02;10.15;;;1.88;;
75649;SDS011;64245;51.282;22.494;2023-02-01T04:57:29;5.28;;;1.23;;
75649;SDS011;64245;51.282;22.494;2023-02-01T04:59:54;5.50;;;1.42;;
75649;SDS011;64245;51.282;22.494;2023-02-01T05:02:20;3.25;;;1.67;;
75649;SDS011;64245;51.282;22.494;2023-02-01T05:04:46;6.82;;;1.45;;
75649;SDS011;64245;51.282;22.494;2023-02-01T05:07:11;3.80;;;1.65;;
75649;SDS011;64245;51.282;22.494;2023-02-01T05:09:37;2.50;;;0.75;;
75649;SDS011;64245;51.282;22.494;2023-02-01T05:12:03;7.60;;;1.90;;
75649;SDS011;64245;51.282;22.494;2023-02-01T05:14:47;6.63;;;1.83;;
75649;SDS011;64245;51.282;22.494;2023-02-01T05:17:13;5.45;;;1.33;;
75649;SDS011;64245;51.282;22.494;2023-02-01T05:19:38;6.25;;;1.85;;
75649;SDS011;64245;51.282;22.494;2023-02-01T05:22:04;2.72;;;1.52;;
75649;SDS011;64245;51.282;22.494;2023-02-01T05:24:30;3.75;;;1.67;;
75649;SDS011;64245;51.282;22.494;2023-02-01T05:26:56;3.75;;;1.20;;
75649;SDS011;64245;51.282;22.494;2023-02-01T05:29:21;5.82;;;2.38;;
75649;SDS011;64245;51.282;22.494;2023-02-01T05:31:47;2.53;;;1.45;;
75649;SDS011;64245;51.282;22.494;2023-02-01T05:34:13;1.58;;;1.17;;
75649;SDS011;64245;51.282;22.494;2023-02-01T05:36:39;5.80;;;1.52;;
75649;SDS011;64245;51.282;22.494;2023-02-01T05:39:04;6.80;;;1.98;;
75649;SDS011;64245;51.282;22.494;2023-02-01T05:41:30;4.18;;;1.80;;
75649;SDS011;64245;51.282;22.494;2023-02-01T05:43:56;7.18;;;1.75;;
75649;SDS011;64245;51.282;22.494;2023-02-01T05:46:22;2.58;;;1.33;;
75649;SDS011;64245;51.282;22.494;2023-02-01T05:48:47;6.68;;;2.15;;
75649;SDS011;64245;51.282;22.494;2023-02-01T05:51:13;10.15;;;2.53;;
75649;SDS011;64245;51.282;22.494;2023-02-01T05:53:39;3.90;;;1.52;;
75649;SDS011;64245;51.282;22.494;2023-02-01T05:56:05;8.43;;;2.85;;
75649;SDS011;64245;51.282;22.494;2023-02-01T05:58:30;3.95;;;1.45;;
75649;SDS011;64245;51.282;22.494;2023-02-01T06:00:58;5.97;;;1.88;;
75649;SDS011;64245;51.282;22.494;2023-02-01T06:03:25;10.50;;;3.03;;
75649;SDS011;64245;51.282;22.494;2023-02-01T06:05:51;4.60;;;1.95;;
75649;SDS011;64245;51.282;22.494;2023-02-01T06:08:16;9.15;;;2.45;;
75649;SDS011;64245;51.282;22.494;2023-02-01T06:10:42;4.82;;;2.15;;
75649;SDS011;64245;51.282;22.494;2023-02-01T06:13:08;5.90;;;1.08;;
75649;SDS011;64245;51.282;22.494;2023-02-01T06:15:34;4.80;;;1.50;;
75649;SDS011;64245;51.282;22.494;2023-02-01T06:18:02;4.68;;;1.85;;
75649;SDS011;64245;51.282;22.494;2023-02-01T06:20:29;5.50;;;2.00;;
75649;SDS011;64245;51.282;22.494;2023-02-01T06:22:55;4.70;;;1.25;;
75649;SDS011;64245;51.282;22.494;2023-02-01T06:25:20;4.95;;;2.50;;
75649;SDS011;64245;51.282;22.494;2023-02-01T06:27:46;4.93;;;2.03;;
75649;SDS011;64245;51.282;22.494;2023-02-01T06:30:12;8.20;;;1.83;;
75649;SDS011;64245;51.282;22.494;2023-02-01T06:32:41;4.75;;;1.83;;
75649;SDS011;64245;51.282;22.494;2023-02-01T06:35:07;8.13;;;1.80;;
75649;SDS011;64245;51.282;22.494;2023-02-01T06:37:36;7.47;;;2.10;;
75649;SDS011;64245;51.282;22.494;2023-02-01T06:40:03;6.93;;;2.90;;
75649;SDS011;64245;51.282;22.494;2023-02-01T06:42:29;4.40;;;1.70;;
75649;SDS011;64245;51.282;22.494;2023-02-01T06:44:55;4.78;;;1.80;;
75649;SDS011;64245;51.282;22.494;2023-02-01T06:47:20;9.20;;;2.75;;
75649;SDS011;64245;51.282;22.494;2023-02-01T06:49:46;2.60;;;1.50;;
75649;SDS011;64245;51.282;22.494;2023-02-01T06:52:12;4.95;;;1.02;;
75649;SDS011;64245;51.282;22.494;2023-02-01T06:54:37;5.43;;;1.83;;
75649;SDS011;64245;51.282;22.494;2023-02-01T06:57:03;8.48;;;2.40;;
75649;SDS011;64245;51.282;22.494;2023-02-01T06:59:29;7.13;;;2.05;;
75649;SDS011;64245;51.282;22.494;2023-02-01T07:01:55;8.55;;;2.33;;
75649;SDS011;64245;51.282;22.494;2023-02-01T07:04:20;1.60;;;0.90;;
75649;SDS011;64245;51.282;22.494;2023-02-01T07:06:46;5.85;;;2.03;;
75649;SDS011;64245;51.282;22.494;2023-02-01T07:09:11;5.93;;;1.73;;
75649;SDS011;64245;51.282;22.494;2023-02-01T07:11:39;3.13;;;1.15;;
75649;SDS011;64245;51.282;22.494;2023-02-01T07:14:08;2.90;;;1.13;;
75649;SDS011;64245;51.282;22.494;2023-02-01T07:16:35;13.57;;;1.85;;
75649;SDS011;64245;51.282;22.494;2023-02-01T07:19:00;4.15;;;1.58;;
75649;SDS011;64245;51.282;22.494;2023-02-01T07:21:27;6.55;;;1.83;;
75649;SDS011;64245;51.282;22.494;2023-02-01T07:23:53;9.15;;;2.47;;
75649;SDS011;64245;51.282;22.494;2023-02-01T07:26:19;4.05;;;1.77;;
75649;SDS011;64245;51.282;22.494;2023-02-01T07:28:45;5.45;;;1.88;;
75649;SDS011;64245;51.282;22.494;2023-02-01T07:31:13;3.05;;;1.08;;
75649;SDS011;64245;51.282;22.494;2023-02-01T07:33:40;3.97;;;1.50;;
75649;SDS011;64245;51.282;22.494;2023-02-01T07:36:07;5.05;;;2.33;;
75649;SDS011;64245;51.282;22.494;2023-02-01T07:38:37;4.30;;;2.03;;
75649;SDS011;64245;51.282;22.494;2023-02-01T07:41:03;5.15;;;1.83;;
75649;SDS011;64245;51.282;22.494;2023-02-01T07:43:30;6.63;;;1.30;;
75649;SDS011;64245;51.282;22.494;2023-02-01T07:45:57;4.85;;;2.10;;
75649;SDS011;64245;51.282;22.494;2023-02-01T07:48:23;8.75;;;2.40;;
75649;SDS011;64245;51.282;22.494;2023-02-01T07:50:56;6.30;;;1.42;;
75649;SDS011;64245;51.282;22.494;2023-02-01T07:53:23;3.55;;;1.23;;
75649;SDS011;64245;51.282;22.494;2023-02-01T07:55:49;9.57;;;2.92;;
75649;SDS011;64245;51.282;22.494;2023-02-01T07:58:15;4.40;;;1.23;;
75649;SDS011;64245;51.282;22.494;2023-02-01T08:00:40;3.83;;;2.05;;
75649;SDS011;64245;51.282;22.494;2023-02-01T08:03:24;4.88;;;1.30;;
75649;SDS011;64245;51.282;22.494;2023-02-01T08:05:54;5.00;;;1.77;;
75649;SDS011;64245;51.282;22.494;2023-02-01T08:08:20;3.63;;;1.40;;
75649;SDS011;64245;51.282;22.494;2023-02-01T08:10:46;6.07;;;1.80;;
75649;SDS011;64245;51.282;22.494;2023-02-01T08:13:12;4.43;;;1.15;;
75649;SDS011;64245;51.282;22.494;2023-02-01T08:15:38;7.70;;;1.60;;
75649;SDS011;64245;51.282;22.494;2023-02-01T08:18:03;8.27;;;1.55;;
75649;SDS011;64245;51.282;22.494;2023-02-01T08:20:29;4.43;;;1.58;;
75649;SDS011;64245;51.282;22.494;2023-02-01T08:22:55;5.28;;;2.42;;
75649;SDS011;64245;51.282;22.494;2023-02-01T08:25:21;6.60;;;2.28;;
75649;SDS011;64245;51.282;22.494;2023-02-01T08:27:47;4.15;;;0.93;;
75649;SDS011;64245;51.282;22.494;2023-02-01T08:30:13;8.35;;;1.92;;
75649;SDS011;64245;51.282;22.494;2023-02-01T08:32:38;10.20;;;1.75;;
75649;SDS011;64245;51.282;22.494;2023-02-01T08:35:05;6.75;;;1.70;;
75649;SDS011;64245;51.282;22.494;2023-02-01T08:37:31;5.68;;;2.00;;
75649;SDS011;64245;51.282;22.494;2023-02-01T08:39:57;9.68;;;2.38;;
75649;SDS011;64245;51.282;22.494;2023-02-01T08:42:22;5.25;;;1.33;;
75649;SDS011;64245;51.282;22.494;2023-02-01T08:45:07;4.15;;;1.77;;
75649;SDS011;64245;51.282;22.494;2023-02-01T08:47:33;4.35;;;1.20;;
75649;SDS011;64245;51.282;22.494;2023-02-01T08:49:59;6.65;;;1.70;;
75649;SDS011;64245;51.282;22.494;2023-02-01T08:52:25;3.58;;;1.00;;
75649;SDS011;64245;51.282;22.494;2023-02-01T08:54:51;6.82;;;1.90;;
75649;SDS011;64245;51.282;22.494;2023-02-01T08:57:16;2.00;;;1.13;;
75649;SDS011;64245;51.282;22.494;2023-02-01T08:59:42;4.40;;;1.63;;
75649;SDS011;64245;51.282;22.494;2023-02-01T09:02:13;9.27;;;1.42;;
75649;SDS011;64245;51.282;22.494;2023-02-01T09:04:40;4.15;;;1.40;;
75649;SDS011;64245;51.282;22.494;2023-02-01T09:07:06;7.13;;;2.20;;
75649;SDS011;64245;51.282;22.494;2023-02-01T09:09:33;7.22;;;2.10;;
75649;SDS011;64245;51.282;22.494;2023-02-01T09:11:59;3.85;;;1.30;;
75649;SDS011;64245;51.282;22.494;2023-02-01T09:14:24;4.28;;;1.83;;
75649;SDS011;64245;51.282;22.494;2023-02-01T09:16:50;8.55;;;1.95;;
75649;SDS011;64245;51.282;22.494;2023-02-01T09:19:16;6.50;;;1.40;;
75649;SDS011;64245;51.282;22.494;2023-02-01T09:21:41;3.47;;;1.48;;
75649;SDS011;64245;51.282;22.494;2023-02-01T09:24:09;4.20;;;1.23;;
75649;SDS011;64245;51.282;22.494;2023-02-01T09:26:35;8.15;;;2.05;;
75649;SDS011;64245;51.282;22.494;2023-02-01T09:29:02;3.90;;;0.95;;
75649;SDS011;64245;51.282;22.494;2023-02-01T09:31:29;7.80;;;1.83;;
75649;SDS011;64245;51.282;22.494;2023-02-01T09:33:55;3.45;;;0.70;;
75649;SDS011;64245;51.282;22.494;2023-02-01T09:36:21;6.78;;;1.60;;
75649;SDS011;64245;51.282;22.494;2023-02-01T09:38:48;1.58;;;0.80;;
75649;SDS011;64245;51.282;22.494;2023-02-01T09:44:28;6.35;;;1.70;;
75649;SDS011;64245;51.282;22.494;2023-02-01T09:46:58;9.07;;;2.20;;
75649;SDS011;64245;51.282;22.494;2023-02-01T09:49:29;4.95;;;1.27;;
75649;SDS011;64245;51.282;22.494;2023-02-01T09:51:57;7.45;;;2.25;;
75649;SDS011;64245;51.282;22.494;2023-02-01T09:54:28;8.70;;;2.13;;
75649;SDS011;64245;51.282;22.494;2023-02-01T09:59:52;6.55;;;1.85;;
75649;SDS011;64245;51.282;22.494;2023-02-01T10:02:26;5.50;;;2.50;;
75649;SDS011;64245;51.282;22.494;2023-02-01T10:07:43;5.68;;;1.50;;
75649;SDS011;64245;51.282;22.494;2023-02-01T10:13:26;2.15;;;0.98;;
75649;SDS011;64245;51.282;22.494;2023-02-01T10:16:16;8.85;;;1.90;;
75649;SDS011;64245;51.282;22.494;2023-02-01T10:18:57;4.78;;;1.60;;
75649;SDS011;64245;51.282;22.494;2023-02-01T10:27:02;7.60;;;1.70;;
75649;SDS011;64245;51.282;22.494;2023-02-01T10:29:39;7.10;;;1.83;;
75649;SDS011;64245;51.282;22.494;2023-02-01T10:32:13;4.55;;;1.45;;
75649;SDS011;64245;51.282;22.494;2023-02-01T10:34:46;5.97;;;1.80;;
75649;SDS011;64245;51.282;22.494;2023-02-01T10:37:26;8.82;;;2.00;;
75649;SDS011;64245;51.282;22.494;2023-02-01T10:39:57;9.50;;;2.20;;
75649;SDS011;64245;51.282;22.494;2023-02-01T10:42:27;4.57;;;1.73;;
75649;SDS011;64245;51.282;22.494;2023-02-01T10:44:56;6.53;;;2.40;;
75649;SDS011;64245;51.282;22.494;2023-02-01T10:47:25;5.68;;;2.63;;
75649;SDS011;64245;51.282;22.494;2023-02-01T10:52:41;6.85;;;2.08;;
75649;SDS011;64245;51.282;22.494;2023-02-01T10:58:03;4.93;;;2.20;;
75649;SDS011;64245;51.282;22.494;2023-02-01T11:00:36;3.38;;;1.83;;
75649;SDS011;64245;51.282;22.494;2023-02-01T11:05:58;2.08;;;1.10;;
75649;SDS011;64245;51.282;22.494;2023-02-01T11:08:25;7.53;;;2.80;;
75649;SDS011;64245;51.282;22.494;2023-02-01T11:10:56;6.95;;;1.70;;
75649;SDS011;64245;51.282;22.494;2023-02-01T11:13:27;5.75;;;1.63;;
75649;SDS011;64245;51.282;22.494;2023-02-01T11:15:58;7.13;;;1.85;;
75649;SDS011;64245;51.282;22.494;2023-02-01T11:18:28;4.45;;;1.42;;
75649;SDS011;64245;51.282;22.494;2023-02-01T11:20:55;5.03;;;1.42;;
75649;SDS011;64245;51.282;22.494;2023-02-01T11:23:22;2.67;;;1.77;;
75649;SDS011;64245;51.282;22.494;2023-02-01T11:25:50;5.70;;;1.95;;
75649;SDS011;64245;51.282;22.494;2023-02-01T11:28:21;5.10;;;1.52;;
75649;SDS011;64245;51.282;22.494;2023-02-01T11:30:53;3.75;;;0.80;;
75649;SDS011;64245;51.282;22.494;2023-02-01T11:33:24;8.10;;;2.15;;
75649;SDS011;64245;51.282;22.494;2023-02-01T11:35:54;7.75;;;1.55;;
75649;SDS011;64245;51.282;22.494;2023-02-01T11:38:29;4.75;;;1.52;;
75649;SDS011;64245;51.282;22.494;2023-02-01T11:41:10;6.53;;;2.58;;
75649;SDS011;64245;51.282;22.494;2023-02-01T11:43:54;3.58;;;1.75;;
75649;SDS011;64245;51.282;22.494;2023-02-01T11:46:23;5.78;;;2.40;;
75649;SDS011;64245;51.282;22.494;2023-02-01T11:48:57;5.25;;;2.08;;
75649;SDS011;64245;51.282;22.494;2023-02-01T12:02:51;7.88;;;1.95;;
75649;SDS011;64245;51.282;22.494;2023-02-01T12:08:25;9.38;;;2.33;;
75649;SDS011;64245;51.282;22.494;2023-02-01T12:46:58;3.35;;;1.10;;
75649;SDS011;64245;51.282;22.494;2023-02-01T12:52:20;10.02;;;3.13;;
75649;SDS011;64245;51.282;22.494;2023-02-01T12:55:15;6.32;;;2.30;;
75649;SDS011;64245;51.282;22.494;2023-02-01T12:57:44;8.98;;;2.35;;
75649;SDS011;64245;51.282;22.494;2023-02-01T13:05:44;6.15;;;2.30;;
75649;SDS011;64245;51.282;22.494;2023-02-01T13:08:18;9.90;;;2.95;;
75649;SDS011;64245;51.282;22.494;2023-02-01T13:10:51;5.60;;;2.38;;
75649;SDS011;64245;51.282;22.494;2023-02-01T13:16:49;3.80;;;1.73;;
75649;SDS011;64245;51.282;22.494;2023-02-01T13:19:27;5.82;;;1.77;;
75649;SDS011;64245;51.282;22.494;2023-02-01T13:22:05;8.50;;;2.40;;
75649;SDS011;64245;51.282;22.494;2023-02-01T13:24:44;6.65;;;2.53;;
75649;SDS011;64245;51.282;22.494;2023-02-01T13:27:14;5.65;;;2.83;;
75649;SDS011;64245;51.282;22.494;2023-02-01T13:29:45;6.40;;;2.08;;
75649;SDS011;64245;51.282;22.494;2023-02-01T13:32:21;5.15;;;1.98;;
75649;SDS011;64245;51.282;22.494;2023-02-01T13:37:35;4.85;;;2.13;;
75649;SDS011;64245;51.282;22.494;2023-02-01T13:40:27;9.18;;;2.70;;
75649;SDS011;64245;51.282;22.494;2023-02-01T13:43:34;9.48;;;2.65;;
75649;SDS011;64245;51.282;22.494;2023-02-01T13:45:56;7.40;;;3.28;;
75649;SDS011;64245;51.282;22.494;2023-02-01T13:48:50;6.85;;;2.78;;
75649;SDS011;64245;51.282;22.494;2023-02-01T13:51:28;8.57;;;2.13;;
75649;SDS011;64245;51.282;22.494;2023-02-01T13:54:00;8.80;;;3.10;;
75649;SDS011;64245;51.282;22.494;2023-02-01T13:56:26;7.53;;;3.30;;
75649;SDS011;64245;51.282;22.494;2023-02-01T13:58:52;5.20;;;1.98;;
75649;SDS011;64245;51.282;22.494;2023-02-01T14:03:52;6.60;;;3.13;;
75649;SDS011;64245;51.282;22.494;2023-02-01T14:21:50;5.18;;;2.90;;
75649;SDS011;64245;51.282;22.494;2023-02-01T14:24:33;10.30;;;3.80;;
75649;SDS011;64245;51.282;22.494;2023-02-01T14:27:02;9.88;;;3.40;;
75649;SDS011;64245;51.282;22.494;2023-02-01T14:29:45;13.57;;;4.32;;
75649;SDS011;64245;51.282;22.494;2023-02-01T14:32:38;10.98;;;4.30;;
75649;SDS011;64245;51.282;22.494;2023-02-01T14:35:27;12.35;;;4.65;;
75649;SDS011;64245;51.282;22.494;2023-02-01T14:37:53;10.25;;;4.28;;
75649;SDS011;64245;51.282;22.494;2023-02-01T14:40:26;7.85;;;3.35;;
75649;SDS011;64245;51.282;22.494;2023-02-01T14:42:53;10.18;;;2.90;;
75649;SDS011;64245;51.282;22.494;2023-02-01T14:47:52;11.07;;;4.30;;
75649;SDS011;64245;51.282;22.494;2023-02-01T14:50:41;10.10;;;3.55;;
75649;SDS011;64245;51.282;22.494;2023-02-01T14:55:37;9.30;;;3.38;;
75649;SDS011;64245;51.282;22.494;2023-02-01T14:58:18;10.45;;;4.40;;
75649;SDS011;64245;51.282;22.494;2023-02-01T15:00:57;8.55;;;3.65;;
75649;SDS011;64245;51.282;22.494;2023-02-01T15:03:34;15.68;;;5.20;;
75649;SDS011;64245;51.282;22.494;2023-02-01T15:06:25;12.32;;;5.88;;
75649;SDS011;64245;51.282;22.494;2023-02-01T15:09:02;15.70;;;4.72;;
75649;SDS011;64245;51.282;22.494;2023-02-01T15:11:33;10.93;;;3.70;;
75649;SDS011;64245;51.282;22.494;2023-02-01T15:14:20;13.57;;;3.90;;
75649;SDS011;64245;51.282;22.494;2023-02-01T15:16:46;11.48;;;4.60;;
75649;SDS011;64245;51.282;22.494;2023-02-01T15:19:19;10.32;;;4.50;;
75649;SDS011;64245;51.282;22.494;2023-02-01T15:21:49;12.95;;;4.32;;
75649;SDS011;64245;51.282;22.494;2023-02-01T15:24:22;10.63;;;3.40;;
75649;SDS011;64245;51.282;22.494;2023-02-01T15:26:50;14.82;;;4.47;;
75649;SDS011;64245;51.282;22.494;2023-02-01T15:29:17;11.40;;;5.07;;
75649;SDS011;64245;51.282;22.494;2023-02-01T15:31:46;7.68;;;3.53;;
75649;SDS011;64245;51.282;22.494;2023-02-01T15:34:16;8.10;;;3.88;;
75649;SDS011;64245;51.282;22.494;2023-02-01T15:36:43;9.27;;;3.72;;
75649;SDS011;64245;51.282;22.494;2023-02-01T15:41:47;14.07;;;5.85;;
75649;SDS011;64245;51.282;22.494;2023-02-01T15:44:28;6.60;;;3.97;;
75649;SDS011;64245;51.282;22.494;2023-02-01T15:46:55;14.45;;;5.15;;
75649;SDS011;64245;51.282;22.494;2023-02-01T15:49:26;5.10;;;2.75;;
75649;SDS011;64245;51.282;22.494;2023-02-01T15:51:55;7.75;;;3.45;;
75649;SDS011;64245;51.282;22.494;2023-02-01T15:54:25;6.65;;;3.85;;
75649;SDS011;64245;51.282;22.494;2023-02-01T15:56:54;7.43;;;3.80;;
75649;SDS011;64245;51.282;22.494;2023-02-01T15:59:23;8.82;;;3.67;;
75649;SDS011;64245;51.282;22.494;2023-02-01T16:01:54;8.98;;;2.83;;
75649;SDS011;64245;51.282;22.494;2023-02-01T16:04:26;7.80;;;3.08;;
75649;SDS011;64245;51.282;22.494;2023-02-01T16:06:57;12.43;;;4.20;;
75649;SDS011;64245;51.282;22.494;2023-02-01T16:09:36;13.45;;;4.60;;
75649;SDS011;64245;51.282;22.494;2023-02-01T16:12:17;5.82;;;2.80;;
75649;SDS011;64245;51.282;22.494;2023-02-01T16:14:50;14.77;;;4.40;;
75649;SDS011;64245;51.282;22.494;2023-02-01T16:17:15;11.70;;;4.93;;
75649;SDS011;64245;51.282;22.494;2023-02-01T16:19:41;11.38;;;3.88;;
75649;SDS011;64245;51.282;22.494;2023-02-01T16:22:07;11.73;;;4.38;;
75649;SDS011;64245;51.282;22.494;2023-02-01T16:24:32;13.82;;;5.28;;
75649;SDS011;64245;51.282;22.494;2023-02-01T16:26:58;14.30;;;4.50;;
75649;SDS011;64245;51.282;22.494;2023-02-01T16:29:24;10.82;;;3.92;;
75649;SDS011;64245;51.282;22.494;2023-02-01T16:31:49;12.90;;;4.10;;
75649;SDS011;64245;51.282;22.494;2023-02-01T16:34:16;10.00;;;3.67;;
75649;SDS011;64245;51.282;22.494;2023-02-01T16:36:43;13.13;;;4.32;;
75649;SDS011;64245;51.282;22.494;2023-02-01T16:39:12;12.50;;;5.28;;
75649;SDS011;64245;51.282;22.494;2023-02-01T16:41:39;10.98;;;4.07;;
75649;SDS011;64245;51.282;22.494;2023-02-01T16:44:04;12.57;;;4.45;;
75649;SDS011;64245;51.282;22.494;2023-02-01T16:46:32;7.53;;;2.63;;
75649;SDS011;64245;51.282;22.494;2023-02-01T16:49:00;11.65;;;4.00;;
75649;SDS011;64245;51.282;22.494;2023-02-01T16:51:28;4.70;;;2.92;;
75649;SDS011;64245;51.282;22.494;2023-02-01T16:53:57;10.80;;;4.00;;
75649;SDS011;64245;51.282;22.494;2023-02-01T16:56:28;11.95;;;4.13;;
75649;SDS011;64245;51.282;22.494;2023-02-01T16:58:55;15.00;;;6.45;;
75649;SDS011;64245;51.282;22.494;2023-02-01T17:01:21;15.63;;;5.93;;
75649;SDS011;64245;51.282;22.494;2023-02-01T17:03:47;15.95;;;5.32;;
75649;SDS011;64245;51.282;22.494;2023-02-01T17:06:14;17.33;;;7.60;;
75649;SDS011;64245;51.282;22.494;2023-02-01T17:08:45;33.00;;;11.82;;
75649;SDS011;64245;51.282;22.494;2023-02-01T17:11:13;28.52;;;11.95;;